createdAt,value
2019-03-22T00:03:04.525Z,48.67
2019-03-22T00:08:07.525Z,51.90
2019-03-22T00:13:10.319Z,50.80
2019-03-22T00:18:13.122Z,49.43
2019-03-22T00:23:15.537Z,52.90
2019-03-22T00:28:17.905Z,51.93
2019-03-22T00:33:20.905Z,52.03
2019-03-22T00:38:23.894Z,52.07
2019-03-22T00:43:26.609Z,52.93
2019-03-22T00:48:29.321Z,52.03
2019-03-22T00:53:32.318Z,51.47
2019-03-22T00:58:35.306Z,51.30
2019-03-22T01:03:37.746Z,48.67
2019-03-22T01:08:40.221Z,52.03
2019-03-22T01:13:42.985Z,45.90
2019-03-22T01:18:46.197Z,48.33
2019-03-22T01:23:49.309Z,47.80
2019-03-22T01:28:52.638Z,49.13
2019-03-22T01:33:55.572Z,54.63
2019-03-22T01:38:58.654Z,50.03
2019-03-22T01:44:01.249Z,52.33
2019-03-22T01:49:04.347Z,54.80
2019-03-22T01:54:08.074Z,56.27
2019-03-22T01:59:11.678Z,55.27
2019-03-22T02:04:14.003Z,54.77
2019-03-22T02:09:16.368Z,53.73
2019-03-22T02:14:19.342Z,54.43
2019-03-22T02:19:21.689Z,54.63
2019-03-22T02:24:24.040Z,57.83
2019-03-22T02:29:26.721Z,51.57
2019-03-22T02:34:29.417Z,56.87
2019-03-22T02:39:31.843Z,50.10
2019-03-22T02:44:34.991Z,51.40
2019-03-22T02:49:38.421Z,56.33
2019-03-22T02:54:40.839Z,54.27
2019-03-22T02:59:43.271Z,54.10
2019-03-22T03:04:46.021Z,53.30
2019-03-22T03:09:48.478Z,50.37
2019-03-22T03:14:51.834Z,52.87
2019-03-22T03:19:54.627Z,51.33
2019-03-22T03:24:58.625Z,55.83
2019-03-22T03:30:01.423Z,58.00
2019-03-22T03:35:05.965Z,56.00
2019-03-22T03:40:09.028Z,54.63
2019-03-22T03:45:34.451Z,52.73
2019-03-22T03:50:37.105Z,56.60
2019-03-22T03:55:39.805Z,55.93
2019-03-22T04:00:42.473Z,52.33
2019-03-22T04:05:45.086Z,55.60
2019-03-22T04:10:47.435Z,53.20
2019-03-22T04:15:50.037Z,60.87
2019-03-22T04:20:52.849Z,55.00
2019-03-22T04:25:55.513Z,57.60
2019-03-22T04:30:57.864Z,52.63
2019-03-22T04:36:00.744Z,58.10
2019-03-22T04:41:03.375Z,56.40
2019-03-22T04:46:07.468Z,55.47
2019-03-22T04:51:11.336Z,57.40
2019-03-22T04:56:17.215Z,57.80
2019-03-22T05:01:21.490Z,57.83
2019-03-22T05:06:25.245Z,60.50
2019-03-22T05:11:28.855Z,57.40
2019-03-22T05:16:35.484Z,54.43
2019-03-22T05:21:38.885Z,57.10
2019-03-22T05:26:42.560Z,54.37
2019-03-22T05:32:14.971Z,55.47
2019-03-22T05:37:17.553Z,60.87
2019-03-22T05:42:20.988Z,57.37
2019-03-22T05:47:23.549Z,58.80
2019-03-22T05:52:26.307Z,53.03
2019-03-22T05:57:29.058Z,53.97
2019-03-22T06:02:31.552Z,54.97
2019-03-22T06:07:36.987Z,52.23
2019-03-22T06:12:39.704Z,57.33
2019-03-22T06:17:51.296Z,52.23
2019-03-22T06:22:46.992Z,48.67
2019-03-22T06:27:50.133Z,50.27
2019-03-22T06:32:52.641Z,52.77
2019-03-22T06:37:55.047Z,54.50
2019-03-22T06:42:57.746Z,52.27
2019-03-22T06:48:00.242Z,51.87
2019-03-22T06:53:03.332Z,51.40
2019-03-22T06:58:06.216Z,51.57
2019-03-22T07:03:09.537Z,47.50
2019-03-22T07:08:11.955Z,55.60
2019-03-22T07:13:14.441Z,53.30
2019-03-22T07:18:17.826Z,48.23
2019-03-22T07:23:20.751Z,43.33
2019-03-22T07:28:23.819Z,45.93
2019-03-22T07:33:26.872Z,39.77
2019-03-22T07:38:29.733Z,43.30
2019-03-22T07:43:32.465Z,43.73
2019-03-22T07:48:34.948Z,46.60
2019-03-22T07:53:37.331Z,45.67
2019-03-22T07:58:40.301Z,55.57
2019-03-22T08:03:43.628Z,43.47
2019-03-22T08:08:46.117Z,47.90
2019-03-22T08:13:48.916Z,45.07
2019-03-22T08:18:51.539Z,41.67
2019-03-22T08:23:53.879Z,39.93
2019-03-22T08:28:56.246Z,40.60
2019-03-22T08:33:58.725Z,43.50
2019-03-22T08:39:01.223Z,47.17
2019-03-22T08:44:04.915Z,39.70
2019-03-22T08:49:09.667Z,47.93
2019-03-22T08:54:12.649Z,47.67
2019-03-22T08:59:15.466Z,46.37
2019-03-22T09:04:18.090Z,48.67
2019-03-22T09:09:20.931Z,46.27
2019-03-22T09:14:23.495Z,51.10
2019-03-22T09:19:26.008Z,50.33
2019-03-22T09:24:38.559Z,45.50
2019-03-22T09:29:33.443Z,51.00
2019-03-22T09:34:35.924Z,53.47
2019-03-22T09:39:38.327Z,51.60
2019-03-22T09:44:44.856Z,45.53
2019-03-22T09:49:46.522Z,51.93
2019-03-22T09:54:49.321Z,51.37
2019-03-22T09:59:51.802Z,58.13
2019-03-22T10:04:55.069Z,49.83
2019-03-22T10:09:58.026Z,65.63
2019-03-22T10:15:00.713Z,63.03
2019-03-22T10:20:04.389Z,65.97
2019-03-22T10:25:06.903Z,58.53
2019-03-22T10:30:10.228Z,62.00
2019-03-22T10:35:25.412Z,62.40
2019-03-22T10:40:17.400Z,64.87
2019-03-22T10:45:19.821Z,70.30
2019-03-22T10:50:22.345Z,60.90
2019-03-22T10:55:30.244Z,69.90
2019-03-22T11:00:30.500Z,62.07
2019-03-22T11:05:32.874Z,59.37
2019-03-22T11:10:36.225Z,62.03
2019-03-22T11:15:48.113Z,62.73
2019-03-22T11:20:45.667Z,63.53
2019-03-22T11:25:49.136Z,60.20
2019-03-22T11:30:51.817Z,65.87
2019-03-22T11:35:54.321Z,61.70
2019-03-22T11:40:56.966Z,56.50
2019-03-22T11:45:59.568Z,55.53
2019-03-22T11:51:03.927Z,53.80
2019-03-22T11:56:07.120Z,57.37
2019-03-22T12:01:19.148Z,60.37
2019-03-22T12:06:14.623Z,63.00
2019-03-22T12:11:17.586Z,54.87
2019-03-22T12:16:20.690Z,58.60
2019-03-22T12:21:23.545Z,56.57
2019-03-22T12:26:27.823Z,52.43
2019-03-22T12:31:30.895Z,53.77
2019-03-22T12:36:33.938Z,49.80
2019-03-22T12:41:37.327Z,49.33
2019-03-22T12:46:40.075Z,60.90
2019-03-22T12:51:42.641Z,57.83
2019-03-22T12:56:45.126Z,52.37
2019-03-22T13:01:47.507Z,53.27
2019-03-22T13:06:53.118Z,48.67
2019-03-22T13:11:56.167Z,51.53
2019-03-22T13:16:58.972Z,50.83
2019-03-22T13:22:02.797Z,51.67
2019-03-22T13:27:05.546Z,58.53
2019-03-22T13:32:08.604Z,56.30
2019-03-22T13:37:11.185Z,54.47
2019-03-22T13:42:13.636Z,55.30
2019-03-22T13:47:17.006Z,55.77
2019-03-22T13:52:19.510Z,54.97
2019-03-22T13:57:22.592Z,53.83
2019-03-22T14:02:25.488Z,54.80
2019-03-22T14:07:28.212Z,57.13
2019-03-22T14:12:37.062Z,53.40
2019-03-22T14:17:34.864Z,52.67
2019-03-22T14:22:37.340Z,53.63
2019-03-22T14:27:40.423Z,57.70
2019-03-22T14:32:43.177Z,49.07
2019-03-22T14:37:51.940Z,47.37
2019-03-22T14:42:54.548Z,49.80
2019-03-22T14:47:57.757Z,53.20
2019-03-22T14:53:00.270Z,47.87
2019-03-22T14:58:03.981Z,46.90
2019-03-22T15:03:25.691Z,48.53
2019-03-22T15:08:28.279Z,48.50
2019-03-22T15:13:45.771Z,43.50
2019-03-22T15:19:10.643Z,39.00
2019-03-22T15:24:31.621Z,38.07
2019-03-22T15:30:05.830Z,37.67
2019-03-22T15:35:26.762Z,39.13
2019-03-22T15:40:29.529Z,32.13
2019-03-22T15:45:31.923Z,32.63
2019-03-22T15:50:34.421Z,33.73
2019-03-22T15:55:37.644Z,31.80
2019-03-22T16:00:40.621Z,34.67
2019-03-22T16:05:43.557Z,34.53
2019-03-22T16:10:46.039Z,36.47
2019-03-22T16:15:48.793Z,34.20
2019-03-22T16:20:56.141Z,37.30
2019-03-22T16:25:56.284Z,34.87
2019-03-22T16:30:59.884Z,36.90
2019-03-22T16:36:02.753Z,33.60
2019-03-22T16:41:05.656Z,33.77
2019-03-22T16:46:08.424Z,40.43
2019-03-22T16:51:11.590Z,36.53
2019-03-22T16:56:14.356Z,38.50
2019-03-22T17:01:17.448Z,35.27
2019-03-22T17:06:20.304Z,46.17
2019-03-22T17:11:23.096Z,47.30
2019-03-22T17:16:25.542Z,48.30
2019-03-22T17:21:28.001Z,48.20
2019-03-22T17:26:30.780Z,54.87
2019-03-22T17:31:33.188Z,46.43
2019-03-22T17:36:35.748Z,46.00
2019-03-22T17:41:38.241Z,43.30
2019-03-22T17:46:43.594Z,46.50
2019-03-22T17:51:46.711Z,48.63
2019-03-22T17:56:49.094Z,47.03
2019-03-22T18:01:51.623Z,51.90
2019-03-22T18:06:54.792Z,57.57
2019-03-22T18:11:57.280Z,52.87
2019-03-22T18:17:00.415Z,54.50
2019-03-22T18:22:03.320Z,51.77
2019-03-22T18:27:06.219Z,55.17
2019-03-22T18:32:08.972Z,58.77
2019-03-22T18:37:12.023Z,59.33
2019-03-22T18:42:14.495Z,60.87
2019-03-22T18:47:17.135Z,62.23
2019-03-22T18:52:20.177Z,58.43
2019-03-22T18:57:22.966Z,60.97
2019-03-22T19:02:27.028Z,59.47
2019-03-22T19:07:29.723Z,62.23
2019-03-22T19:12:32.246Z,56.63
2019-03-22T19:17:35.520Z,56.93
2019-03-22T19:22:37.902Z,54.37
2019-03-22T19:27:40.223Z,58.13
2019-03-22T19:32:42.950Z,53.93
2019-03-22T19:37:45.764Z,61.90
2019-03-22T19:42:48.264Z,59.50
2019-03-22T19:47:50.631Z,57.20
2019-03-22T19:52:53.370Z,63.27
2019-03-22T19:57:56.474Z,65.77
2019-03-22T20:02:58.811Z,59.87
2019-03-22T20:08:02.050Z,66.53
2019-03-22T20:13:05.411Z,65.43
2019-03-22T20:18:07.881Z,61.63
2019-03-22T20:23:10.427Z,60.27
2019-03-22T20:28:12.789Z,62.70
2019-03-22T20:33:15.163Z,63.20
2019-03-22T20:38:17.608Z,62.33
2019-03-22T20:43:21.276Z,61.50
2019-03-22T20:48:24.568Z,58.37
2019-03-22T20:53:28.328Z,60.13
2019-03-22T20:58:30.731Z,59.23
2019-03-22T21:03:33.928Z,61.20
2019-03-22T21:08:36.532Z,63.70
2019-03-22T21:13:39.588Z,61.90
2019-03-22T21:18:41.977Z,63.43
2019-03-22T21:23:45.388Z,64.30
2019-03-22T21:28:47.885Z,71.73
2019-03-22T21:33:52.272Z,72.53
2019-03-22T21:38:54.798Z,67.57
2019-03-22T21:43:58.222Z,73.40
2019-03-22T21:49:01.021Z,66.17
2019-03-22T21:54:03.742Z,68.77
2019-03-22T21:59:06.772Z,72.53
2019-03-22T22:04:09.155Z,73.80
2019-03-22T22:09:12.137Z,73.40
2019-03-22T22:14:14.570Z,75.83
2019-03-22T22:19:16.962Z,81.83
2019-03-22T22:24:20.008Z,79.83
2019-03-22T22:29:22.411Z,77.87
2019-03-22T22:34:24.918Z,83.00
2019-03-22T22:39:27.389Z,75.87
2019-03-22T22:44:30.377Z,81.93
2019-03-22T22:49:32.956Z,82.67
2019-03-22T22:54:35.773Z,78.30
2019-03-22T22:59:39.122Z,77.30
2019-03-22T23:04:42.157Z,80.03
2019-03-22T23:09:45.293Z,83.67
2019-03-22T23:14:47.660Z,82.07
2019-03-22T23:19:50.222Z,91.47
2019-03-22T23:24:53.237Z,83.27
2019-03-22T23:29:55.980Z,84.53
2019-03-22T23:34:59.355Z,86.90
2019-03-22T23:40:02.388Z,87.40
2019-03-22T23:45:05.943Z,85.63
2019-03-22T23:50:09.758Z,84.17
2019-03-22T23:55:12.605Z,88.83
